Time;durP1;ratioP1;P1;durP2;ratioP2;P2;SDS_P1;SDS_P2;PMS_P1;PMS_P2;Temp;Humidity;BMP_temperature;BMP_pressure;BME280_temperature;BME280_humidity;BME280_pressure;Samples;Min_cycle;Max_cycle;Signal;HPM_P1;HPM_P2
2023/10/30 00:01:16;;;;;;;3.53;0.60;;;11.80;99.90;;;;;;5016376;28;20198;-91
2023/10/30 00:03:41;;;;;;;2.47;0.70;;;11.80;99.90;;;;;;5015601;28;20268;-91
2023/10/30 00:06:07;;;;;;;2.50;0.80;;;11.80;99.90;;;;;;5021858;28;20620;-90
2023/10/30 00:08:33;;;;;;;2.22;0.80;;;11.80;99.90;;;;;;5017789;28;20606;-89
2023/10/30 00:10:59;;;;;;;3.53;0.77;;;11.80;99.90;;;;;;5015806;28;20191;-91
2023/10/30 00:13:25;;;;;;;4.78;0.98;;;11.80;99.90;;;;;;5015970;28;20183;-90
2023/10/30 00:15:50;;;;;;;4.55;1.20;;;11.80;99.90;;;;;;5015855;28;20210;-91
2023/10/30 00:18:16;;;;;;;2.53;0.80;;;11.80;99.90;;;;;;5024263;28;20179;-89
2023/10/30 00:20:42;;;;;;;3.00;0.70;;;11.80;99.90;;;;;;5016769;28;20213;-92
2023/10/30 00:23:08;;;;;;;3.40;0.98;;;11.80;99.90;;;;;;5015465;28;20574;-88
2023/10/30 00:25:33;;;;;;;3.08;0.70;;;11.80;99.90;;;;;;5033111;28;20222;-88
2023/10/30 00:28:00;;;;;;;3.08;0.70;;;11.80;99.90;;;;;;5022160;28;20266;-89
2023/10/30 00:30:29;;;;;;;8.27;0.85;;;11.80;99.90;;;;;;5024820;28;20195;-89
2023/10/30 00:32:54;;;;;;;3.10;0.90;;;11.80;99.90;;;;;;5016469;28;20171;-91
2023/10/30 00:35:20;;;;;;;4.15;1.20;;;11.80;99.90;;;;;;5014979;28;20244;-91
2023/10/30 00:37:46;;;;;;;3.60;0.93;;;11.70;99.90;;;;;;5016364;28;20179;-89
2023/10/30 00:40:12;;;;;;;4.25;0.85;;;11.80;99.90;;;;;;5035216;28;20198;-89
2023/10/30 00:42:38;;;;;;;2.80;0.70;;;11.80;99.90;;;;;;5016754;28;20642;-90
2023/10/30 00:45:06;;;;;;;4.15;1.08;;;11.70;99.90;;;;;;5020766;28;20242;-91
2023/10/30 00:47:34;;;;;;;5.47;0.90;;;11.70;99.90;;;;;;5018081;28;20183;-91
2023/10/30 00:50:00;;;;;;;8.55;1.05;;;11.80;99.90;;;;;;5014388;28;20250;-89
2023/10/30 00:52:26;;;;;;;2.00;0.70;;;11.80;99.90;;;;;;5016153;28;20182;-91
2023/10/30 00:54:53;;;;;;;4.35;1.27;;;11.70;99.90;;;;;;5014923;28;20194;-91
2023/10/30 00:57:19;;;;;;;4.10;0.90;;;11.80;99.90;;;;;;5015138;28;20183;-90
2023/10/30 00:59:45;;;;;;;5.82;0.90;;;11.80;99.90;;;;;;5023339;28;20205;-92
2023/10/30 01:02:10;;;;;;;3.88;1.08;;;11.80;99.90;;;;;;5016038;28;20273;-88
2023/10/30 01:04:36;;;;;;;3.28;0.88;;;11.80;99.90;;;;;;5032656;28;20219;-90
2023/10/30 01:07:02;;;;;;;5.75;0.70;;;11.80;99.90;;;;;;5021115;28;20249;-87
2023/10/30 01:09:28;;;;;;;4.40;0.90;;;11.80;99.90;;;;;;5031549;28;20194;-90
2023/10/30 01:11:54;;;;;;;6.65;1.20;;;11.80;99.90;;;;;;5023152;28;20264;-90
2023/10/30 01:14:19;;;;;;;1.63;0.80;;;11.80;99.90;;;;;;5022767;28;20186;-90
2023/10/30 01:16:46;;;;;;;6.53;0.80;;;11.80;99.90;;;;;;5014393;28;20198;-88
2023/10/30 01:19:11;;;;;;;4.18;1.02;;;11.80;99.90;;;;;;5016064;28;20191;-92
2023/10/30 01:21:37;;;;;;;1.90;0.70;;;11.90;99.90;;;;;;5016654;28;20195;-88
2023/10/30 01:24:05;;;;;;;3.33;0.70;;;11.90;99.90;;;;;;5012852;28;20206;-89
2023/10/30 01:26:31;;;;;;;3.28;0.95;;;11.90;99.90;;;;;;5015518;28;20187;-87
2023/10/30 01:28:56;;;;;;;3.33;0.85;;;11.90;99.90;;;;;;5015456;28;20182;-88
2023/10/30 01:31:27;;;;;;;3.47;0.60;;;11.90;99.90;;;;;;5014546;28;20530;-88
2023/10/30 01:33:54;;;;;;;3.63;0.90;;;11.90;99.90;;;;;;5006323;28;20622;-89
2023/10/30 01:36:20;;;;;;;3.50;1.00;;;11.90;99.90;;;;;;5013989;28;20282;-87
2023/10/30 01:38:45;;;;;;;4.40;0.88;;;11.90;99.90;;;;;;5015448;28;20266;-89
2023/10/30 01:41:11;;;;;;;2.45;0.70;;;11.90;99.90;;;;;;5020757;28;20240;-92
2023/10/30 01:43:37;;;;;;;3.40;0.82;;;11.80;99.90;;;;;;5032244;28;20186;-89
2023/10/30 01:46:02;;;;;;;4.90;1.17;;;11.80;99.90;;;;;;5023238;28;20294;-89
2023/10/30 01:48:31;;;;;;;4.20;0.80;;;11.80;99.90;;;;;;5013291;28;20673;-92
2023/10/30 01:50:59;;;;;;;4.20;1.05;;;11.90;99.90;;;;;;5022411;28;20190;-92
2023/10/30 01:53:26;;;;;;;4.70;1.05;;;11.90;99.90;;;;;;5022347;28;20190;-90
2023/10/30 01:55:53;;;;;;;2.78;0.80;;;11.90;99.90;;;;;;5026223;28;20186;-91
2023/10/30 01:58:20;;;;;;;4.93;1.17;;;11.90;99.90;;;;;;5018256;28;20218;-88
2023/10/30 02:00:46;;;;;;;2.10;0.73;;;11.80;99.90;;;;;;5013048;28;20282;-91
2023/10/30 02:03:12;;;;;;;2.53;0.88;;;11.80;99.90;;;;;;5013729;28;20194;-91
2023/10/30 02:05:38;;;;;;;1.85;0.70;;;11.80;99.90;;;;;;5013862;28;20219;-89
2023/10/30 02:08:03;;;;;;;3.72;0.70;;;11.80;99.90;;;;;;5013941;28;20209;-88
2023/10/30 02:10:30;;;;;;;2.72;0.85;;;11.90;99.90;;;;;;5013851;28;20187;-91
2023/10/30 02:12:56;;;;;;;8.13;1.30;;;11.80;99.90;;;;;;5013393;28;20191;-86
2023/10/30 02:15:21;;;;;;;4.30;0.82;;;11.90;99.90;;;;;;5021383;28;20241;-86
2023/10/30 02:17:47;;;;;;;4.05;0.70;;;11.90;99.90;;;;;;5013410;28;20191;-88
2023/10/30 02:20:13;;;;;;;2.28;1.00;;;11.90;99.90;;;;;;5021639;28;20194;-88
2023/10/30 02:22:39;;;;;;;2.85;1.10;;;11.90;99.90;;;;;;5015659;28;20183;-90
2023/10/30 02:25:05;;;;;;;2.35;0.80;;;11.90;99.90;;;;;;5019480;28;20214;-89
2023/10/30 02:27:31;;;;;;;2.80;0.98;;;11.90;99.90;;;;;;5013363;28;20221;-89
2023/10/30 02:29:57;;;;;;;3.50;0.77;;;11.80;99.90;;;;;;5013724;28;20191;-87
2023/10/30 02:32:23;;;;;;;6.13;1.00;;;11.80;99.90;;;;;;5021856;28;20182;-88
2023/10/30 02:34:49;;;;;;;6.63;1.00;;;11.80;99.90;;;;;;5014241;28;20215;-91
2023/10/30 02:37:15;;;;;;;3.65;0.93;;;11.90;99.90;;;;;;5013059;28;20194;-90
2023/10/30 02:39:40;;;;;;;4.00;1.10;;;11.90;99.90;;;;;;5021784;28;20281;-87
2023/10/30 02:42:08;;;;;;;5.20;1.17;;;11.80;99.90;;;;;;5021751;28;20190;-88
2023/10/30 02:44:34;;;;;;;5.10;0.80;;;11.80;99.90;;;;;;5013516;28;20207;-90
2023/10/30 02:47:00;;;;;;;5.30;0.77;;;11.80;99.90;;;;;;5013653;28;20206;-89
2023/10/30 02:49:25;;;;;;;5.35;1.10;;;11.80;99.90;;;;;;5013068;28;20235;-90
2023/10/30 02:51:52;;;;;;;5.82;0.93;;;11.80;99.90;;;;;;5014862;28;20187;-88
2023/10/30 02:54:17;;;;;;;5.20;1.10;;;11.80;99.90;;;;;;5014680;28;20190;-90
2023/10/30 02:56:43;;;;;;;3.58;0.90;;;11.80;99.90;;;;;;5021313;28;20273;-91
2023/10/30 02:59:09;;;;;;;3.85;1.00;;;11.80;99.90;;;;;;5014430;28;20270;-89
2023/10/30 03:01:35;;;;;;;5.43;1.27;;;11.80;99.90;;;;;;5023661;28;20190;-89
2023/10/30 03:04:01;;;;;;;3.85;0.98;;;11.70;99.90;;;;;;5029427;28;20191;-91
2023/10/30 03:06:27;;;;;;;4.63;1.10;;;11.70;99.90;;;;;;5013582;28;20191;-91
2023/10/30 03:08:54;;;;;;;5.80;1.02;;;11.70;99.90;;;;;;5017452;28;20285;-91
2023/10/30 03:11:20;;;;;;;5.25;1.17;;;11.70;99.90;;;;;;5009277;28;20229;-90
2023/10/30 03:13:46;;;;;;;3.80;0.82;;;11.70;99.90;;;;;;5016189;28;20210;-91
2023/10/30 03:16:11;;;;;;;5.00;0.82;;;11.70;99.90;;;;;;5025113;28;20210;-91
2023/10/30 03:18:38;;;;;;;4.97;0.85;;;11.70;99.90;;;;;;5026775;28;20187;-91
2023/10/30 03:21:04;;;;;;;5.40;1.10;;;11.70;99.90;;;;;;5015261;28;20622;-90
2023/10/30 03:23:30;;;;;;;3.00;0.90;;;11.70;99.90;;;;;;5016642;28;20218;-93
2023/10/30 03:25:56;;;;;;;4.95;1.27;;;11.60;99.90;;;;;;5016369;28;20242;-90
2023/10/30 03:28:21;;;;;;;3.03;0.90;;;11.60;99.90;;;;;;5016667;28;20270;-90
2023/10/30 03:30:47;;;;;;;4.63;1.05;;;11.60;99.90;;;;;;5016475;28;20579;-91
2023/10/30 03:33:13;;;;;;;5.35;1.00;;;11.60;99.90;;;;;;5017772;28;20183;-89
2023/10/30 03:35:39;;;;;;;4.90;0.80;;;11.60;99.90;;;;;;5016543;28;20218;-89
2023/10/30 03:38:05;;;;;;;7.13;0.98;;;11.60;99.90;;;;;;5016530;28;20210;-91
2023/10/30 03:40:31;;;;;;;3.30;1.00;;;11.60;99.90;;;;;;5017352;28;20183;-91
2023/10/30 03:42:57;;;;;;;6.45;1.50;;;11.60;99.90;;;;;;5037400;28;20510;-91
2023/10/30 03:45:22;;;;;;;2.97;1.05;;;11.60;99.90;;;;;;5021375;28;20548;-91
2023/10/30 03:47:49;;;;;;;5.40;1.58;;;11.60;99.90;;;;;;5015585;28;20258;-91
2023/10/30 03:50:16;;;;;;;7.82;1.25;;;11.60;99.90;;;;;;5016205;28;20199;-91
2023/10/30 03:52:41;;;;;;;5.70;1.30;;;11.60;99.90;;;;;;5016330;28;20213;-90
2023/10/30 03:55:07;;;;;;;3.83;1.27;;;11.60;99.90;;;;;;5032884;28;20534;-90
2023/10/30 03:57:33;;;;;;;5.50;1.02;;;11.50;99.90;;;;;;5016096;28;20318;-92
2023/10/30 03:59:59;;;;;;;7.45;1.00;;;11.50;99.90;;;;;;5016236;28;20194;-89
2023/10/30 04:02:24;;;;;;;3.58;1.00;;;11.50;99.90;;;;;;5024378;28;20571;-90
2023/10/30 04:04:50;;;;;;;5.57;1.27;;;11.50;99.90;;;;;;5023926;28;20222;-92
2023/10/30 04:07:16;;;;;;;5.95;1.15;;;11.50;99.90;;;;;;5015988;28;20214;-91
2023/10/30 04:09:42;;;;;;;4.18;0.90;;;11.50;99.90;;;;;;5015829;28;20663;-92
2023/10/30 04:12:07;;;;;;;4.20;1.17;;;11.50;99.90;;;;;;5016132;28;20187;-89
2023/10/30 04:14:33;;;;;;;6.25;0.98;;;11.50;99.90;;;;;;5015694;28;20194;-90
2023/10/30 04:17:02;;;;;;;8.30;1.40;;;11.50;99.90;;;;;;5032538;28;20218;-92
2023/10/30 04:19:28;;;;;;;5.28;1.10;;;11.50;99.90;;;;;;5016389;28;20626;-90
2023/10/30 04:21:54;;;;;;;6.95;1.67;;;11.50;99.90;;;;;;5023553;28;20187;-90
2023/10/30 04:24:19;;;;;;;5.47;1.00;;;11.50;99.90;;;;;;5014723;28;20656;-91
2023/10/30 04:26:45;;;;;;;9.70;1.38;;;11.50;99.90;;;;;;5023726;28;20233;-90
2023/10/30 04:29:10;;;;;;;6.80;1.15;;;11.50;99.90;;;;;;5016642;28;20614;-89
2023/10/30 04:31:36;;;;;;;7.72;2.00;;;11.50;99.90;;;;;;5015532;28;20191;-91
2023/10/30 04:34:03;;;;;;;3.75;1.25;;;11.50;99.90;;;;;;5023569;28;20205;-89
2023/10/30 04:36:29;;;;;;;6.40;1.10;;;11.50;99.90;;;;;;5016235;28;20183;-91
2023/10/30 04:38:55;;;;;;;7.75;1.13;;;11.50;99.90;;;;;;5015382;28;20285;-89
2023/10/30 04:41:20;;;;;;;9.77;1.30;;;11.40;99.90;;;;;;5016490;28;20183;-91
2023/10/30 04:43:46;;;;;;;7.18;1.20;;;11.50;99.90;;;;;;5015668;28;20237;-90
2023/10/30 04:46:12;;;;;;;6.28;1.00;;;11.50;99.90;;;;;;5015232;28;20228;-90
2023/10/30 04:48:37;;;;;;;5.03;0.80;;;11.40;99.90;;;;;;5015768;28;20606;-92
2023/10/30 04:51:03;;;;;;;6.60;1.30;;;11.40;99.90;;;;;;5015183;28;20213;-90
2023/10/30 04:53:29;;;;;;;4.72;1.08;;;11.40;99.90;;;;;;5023213;28;20637;-88
2023/10/30 04:55:56;;;;;;;6.75;1.10;;;11.40;99.90;;;;;;5023217;28;20191;-91
2023/10/30 04:58:22;;;;;;;5.75;1.45;;;11.40;99.90;;;;;;5023040;28;20187;-89
2023/10/30 05:00:48;;;;;;;8.45;1.50;;;11.30;99.90;;;;;;5015090;28;20194;-90
2023/10/30 05:03:14;;;;;;;8.50;1.58;;;11.40;99.90;;;;;;5015047;28;20202;-90
2023/10/30 05:05:40;;;;;;;4.00;1.40;;;11.30;99.90;;;;;;5014600;28;20219;-92
2023/10/30 05:08:06;;;;;;;4.15;1.25;;;11.30;99.90;;;;;;5014805;28;20194;-90
2023/10/30 05:10:31;;;;;;;4.85;1.15;;;11.30;99.90;;;;;;5014763;28;20188;-91
2023/10/30 05:12:57;;;;;;;4.75;1.05;;;11.30;99.90;;;;;;5022857;28;20194;-90
2023/10/30 05:15:23;;;;;;;5.68;1.25;;;11.30;99.90;;;;;;5015231;28;20270;-89
2023/10/30 05:17:49;;;;;;;6.55;1.33;;;11.30;99.90;;;;;;5031546;28;20688;-88
2023/10/30 05:20:15;;;;;;;6.00;1.10;;;11.30;99.90;;;;;;5014730;28;20233;-89
2023/10/30 05:22:43;;;;;;;5.65;1.23;;;11.30;99.90;;;;;;5015634;28;20179;-90
2023/10/30 05:25:09;;;;;;;3.08;1.20;;;11.30;99.90;;;;;;5015638;28;20260;-90
2023/10/30 05:27:35;;;;;;;7.20;1.10;;;11.30;99.90;;;;;;5015744;28;20188;-89
2023/10/30 05:30:01;;;;;;;3.67;0.98;;;11.30;99.90;;;;;;5019514;28;20197;-90
2023/10/30 05:32:26;;;;;;;5.60;1.38;;;11.30;99.90;;;;;;5017775;28;20186;-90
2023/10/30 05:34:52;;;;;;;6.43;1.13;;;11.40;99.90;;;;;;5022113;28;20218;-89
2023/10/30 05:37:19;;;;;;;7.35;1.50;;;11.40;99.90;;;;;;5014352;28;20187;-90
2023/10/30 05:39:45;;;;;;;5.72;0.90;;;11.40;99.90;;;;;;5015591;28;20266;-90
2023/10/30 05:42:11;;;;;;;5.28;1.35;;;11.30;99.90;;;;;;5016385;28;20279;-89
2023/10/30 05:44:37;;;;;;;6.72;1.48;;;11.40;99.90;;;;;;5012455;28;20642;-90
2023/10/30 05:47:03;;;;;;;4.40;1.40;;;11.30;99.90;;;;;;5014401;28;20215;-90
2023/10/30 05:49:28;;;;;;;7.47;1.40;;;11.30;99.90;;;;;;5023038;28;20222;-91
2023/10/30 05:51:55;;;;;;;4.93;1.10;;;11.30;99.90;;;;;;5022450;28;20285;-90
2023/10/30 05:54:21;;;;;;;6.72;1.35;;;11.30;99.90;;;;;;5014333;28;20198;-91
2023/10/30 05:56:47;;;;;;;8.30;1.08;;;11.30;99.90;;;;;;5016857;28;20277;-90
2023/10/30 05:59:13;;;;;;;7.57;1.40;;;11.30;99.90;;;;;;5012734;28;20247;-91
2023/10/30 06:01:38;;;;;;;4.13;1.20;;;11.30;99.90;;;;;;5012821;28;20325;-90
2023/10/30 06:04:04;;;;;;;8.30;1.58;;;11.20;99.90;;;;;;5014006;28;20248;-90
2023/10/30 06:06:30;;;;;;;5.05;1.17;;;11.20;99.90;;;;;;5030488;28;20195;-92
2023/10/30 06:08:56;;;;;;;5.07;1.13;;;11.30;99.90;;;;;;5014034;28;20190;-91
2023/10/30 06:11:22;;;;;;;12.27;1.83;;;11.20;99.90;;;;;;5014017;28;20191;-92
2023/10/30 06:13:48;;;;;;;13.02;1.40;;;11.20;99.90;;;;;;5014557;28;20201;-89
2023/10/30 06:16:15;;;;;;;11.77;1.67;;;11.30;99.90;;;;;;5014085;28;20622;-91
2023/10/30 06:18:41;;;;;;;8.20;1.40;;;11.30;99.90;;;;;;5021554;28;20187;-90
2023/10/30 06:21:07;;;;;;;4.65;1.13;;;11.30;99.90;;;;;;5014132;28;20194;-91
2023/10/30 06:23:36;;;;;;;4.82;1.15;;;11.30;99.90;;;;;;5014847;28;20187;-91
2023/10/30 06:26:11;;;;;;;5.45;1.10;;;11.30;99.90;;;;;;5030165;28;20214;-91
2023/10/30 06:28:37;;;;;;;7.43;1.45;;;11.30;99.90;;;;;;5013818;28;20540;-92
2023/10/30 06:31:04;;;;;;;11.00;1.73;;;11.30;99.90;;;;;;5014891;28;20210;-91
2023/10/30 06:33:33;;;;;;;9.00;1.50;;;11.30;99.90;;;;;;5013437;28;20191;-92
2023/10/30 06:36:00;;;;;;;7.47;1.95;;;11.40;99.90;;;;;;5013625;28;20228;-92
2023/10/30 06:38:26;;;;;;;9.43;1.50;;;11.40;99.90;;;;;;5013688;28;20531;-91
2023/10/30 06:40:52;;;;;;;6.75;1.50;;;11.40;99.90;;;;;;5013895;28;20183;-92
2023/10/30 06:43:18;;;;;;;8.00;1.15;;;11.40;99.90;;;;;;5021835;28;20653;-90
2023/10/30 06:45:44;;;;;;;8.02;1.42;;;11.40;99.90;;;;;;5014662;28;20225;-89
2023/10/30 06:48:10;;;;;;;5.38;1.23;;;11.40;99.90;;;;;;5015315;28;20230;-87
2023/10/30 06:50:35;;;;;;;7.13;1.75;;;11.40;99.90;;;;;;5017237;28;20249;-90
2023/10/30 06:53:02;;;;;;;8.75;1.50;;;11.40;99.90;;;;;;5017430;28;20197;-91
2023/10/30 06:55:28;;;;;;;3.90;1.33;;;11.50;99.90;;;;;;5034071;28;20187;-89
2023/10/30 06:57:53;;;;;;;5.78;1.48;;;11.50;99.90;;;;;;5033460;28;20201;-88
2023/10/30 07:00:19;;;;;;;10.00;1.50;;;11.60;99.90;;;;;;5017404;28;20648;-88
2023/10/30 07:02:45;;;;;;;7.90;1.77;;;11.50;99.90;;;;;;5034179;28;20195;-90
2023/10/30 07:05:11;;;;;;;8.80;1.48;;;11.60;99.90;;;;;;5016789;28;20536;-88
2023/10/30 07:07:36;;;;;;;9.77;1.38;;;11.60;99.90;;;;;;5016764;28;20187;-93
2023/10/30 07:10:03;;;;;;;9.77;1.45;;;11.70;99.90;;;;;;5017022;28;20202;-89
2023/10/30 07:12:29;;;;;;;7.13;1.20;;;11.70;99.90;;;;;;5016921;28;20202;-90
2023/10/30 07:14:55;;;;;;;8.32;1.67;;;11.70;99.90;;;;;;5017035;28;20183;-89
2023/10/30 07:17:20;;;;;;;6.32;1.67;;;11.70;99.90;;;;;;5016909;28;20640;-88
2023/10/30 07:19:48;;;;;;;9.65;1.60;;;11.70;99.90;;;;;;5008747;28;20631;-90
2023/10/30 07:22:14;;;;;;;8.50;1.27;;;11.70;99.90;;;;;;5023345;28;20214;-90
2023/10/30 07:24:39;;;;;;;6.53;1.38;;;11.70;99.90;;;;;;5019218;28;20245;-91
2023/10/30 07:27:05;;;;;;;8.77;1.70;;;11.70;99.90;;;;;;5016776;28;20579;-87
2023/10/30 07:29:31;;;;;;;8.13;1.55;;;11.70;99.90;;;;;;5016758;28;20187;-90
2023/10/30 07:31:57;;;;;;;7.40;1.55;;;11.70;99.90;;;;;;5017900;28;20225;-89
2023/10/30 07:34:22;;;;;;;6.60;1.23;;;11.80;99.90;;;;;;5016309;28;20237;-88
2023/10/30 07:36:48;;;;;;;4.22;1.17;;;11.80;99.90;;;;;;5020847;28;20660;-89
2023/10/30 07:39:14;;;;;;;6.35;1.60;;;11.80;99.90;;;;;;5029967;28;20724;-88
2023/10/30 07:41:40;;;;;;;11.07;1.77;;;11.80;99.90;;;;;;5016475;28;20183;-88
2023/10/30 07:44:09;;;;;;;9.85;1.63;;;11.80;99.90;;;;;;5032925;28;20214;-89
2023/10/30 07:46:35;;;;;;;5.57;1.25;;;11.90;99.90;;;;;;5024435;28;20197;-89
2023/10/30 07:49:06;;;;;;;5.32;1.45;;;11.90;99.90;;;;;;5024567;28;20226;-89
2023/10/30 07:51:32;;;;;;;7.45;2.20;;;11.90;99.90;;;;;;5016372;28;20183;-90
2023/10/30 07:53:59;;;;;;;11.40;2.33;;;12.00;99.90;;;;;;5016314;28;20179;-90
2023/10/30 07:56:24;;;;;;;7.32;1.27;;;12.00;99.90;;;;;;5032695;28;20187;-91
2023/10/30 07:58:50;;;;;;;9.30;1.65;;;12.00;99.90;;;;;;5010138;28;20724;-91
2023/10/30 08:01:19;;;;;;;9.05;1.70;;;12.00;99.90;;;;;;5012775;28;20218;-90
2023/10/30 08:03:45;;;;;;;5.78;1.63;;;12.00;99.90;;;;;;5024312;28;20187;-91
2023/10/30 08:06:11;;;;;;;6.70;1.40;;;12.10;99.90;;;;;;5024230;28;20215;-89
2023/10/30 08:08:36;;;;;;;5.88;1.95;;;12.10;99.90;;;;;;5024096;28;20521;-90
2023/10/30 08:11:02;;;;;;;5.55;1.77;;;12.10;99.90;;;;;;5017226;28;20202;-88
2023/10/30 08:13:28;;;;;;;4.95;1.27;;;12.20;99.90;;;;;;5015817;28;20187;-89
2023/10/30 08:15:54;;;;;;;8.40;1.58;;;12.20;99.90;;;;;;5032391;28;20270;-90
2023/10/30 08:18:20;;;;;;;7.72;1.10;;;12.20;99.90;;;;;;5024016;28;20218;-88
2023/10/30 08:20:46;;;;;;;8.20;1.60;;;12.30;99.90;;;;;;5018306;28;20244;-91
2023/10/30 08:23:12;;;;;;;5.28;1.38;;;12.30;99.90;;;;;;5029065;28;20198;-88
2023/10/30 08:25:37;;;;;;;9.18;1.63;;;12.30;99.90;;;;;;5009636;28;20721;-88
2023/10/30 08:28:03;;;;;;;6.55;1.52;;;12.40;99.90;;;;;;5023613;28;20187;-90
2023/10/30 08:30:29;;;;;;;5.35;1.25;;;12.40;99.90;;;;;;5015551;28;20190;-89
2023/10/30 08:32:56;;;;;;;5.00;1.38;;;12.50;99.90;;;;;;5019447;28;20194;-87
2023/10/30 08:35:22;;;;;;;7.00;1.92;;;12.60;99.90;;;;;;5012286;28;20187;-89
2023/10/30 08:37:48;;;;;;;11.75;1.88;;;12.50;99.90;;;;;;5016501;28;20184;-89
2023/10/30 08:40:14;;;;;;;5.65;1.42;;;12.50;99.90;;;;;;5015411;28;20198;-90
2023/10/30 08:42:39;;;;;;;10.98;1.83;;;12.60;99.90;;;;;;5015302;28;20610;-89
2023/10/30 08:45:07;;;;;;;8.38;1.27;;;12.60;99.90;;;;;;5034992;28;20272;-92
2023/10/30 08:47:33;;;;;;;5.13;1.25;;;12.70;99.90;;;;;;5025288;28;20193;-87
2023/10/30 08:49:59;;;;;;;10.13;1.50;;;12.70;99.90;;;;;;5018897;28;20519;-89
2023/10/30 08:52:25;;;;;;;7.03;1.83;;;12.70;99.90;;;;;;5011972;28;20283;-91
2023/10/30 08:54:50;;;;;;;4.38;1.73;;;12.70;99.90;;;;;;5015313;28;20273;-93
2023/10/30 08:57:19;;;;;;;8.10;1.40;;;12.70;99.90;;;;;;5021992;28;20218;-89
2023/10/30 08:59:45;;;;;;;8.35;1.58;;;12.70;99.90;;;;;;5007695;28;20619;-94
2023/10/30 09:02:11;;;;;;;9.52;1.60;;;12.60;99.90;;;;;;5015082;28;20183;-92
2023/10/30 09:04:36;;;;;;;9.23;1.45;;;12.60;99.90;;;;;;5014768;28;20211;-91
2023/10/30 09:07:03;;;;;;;7.38;1.48;;;12.70;99.90;;;;;;5014995;28;20188;-92
2023/10/30 09:09:29;;;;;;;7.35;1.60;;;12.70;99.90;;;;;;5016026;28;20202;-92
2023/10/30 09:11:55;;;;;;;6.18;1.88;;;12.70;99.90;;;;;;5018547;28;20213;-92
2023/10/30 09:14:21;;;;;;;5.55;1.42;;;12.60;99.90;;;;;;5026758;28;20191;-91
2023/10/30 09:16:46;;;;;;;4.95;1.30;;;12.60;99.90;;;;;;5014985;28;20187;-92
2023/10/30 09:19:12;;;;;;;5.40;1.50;;;12.60;99.90;;;;;;5021916;28;20537;-91
2023/10/30 09:21:38;;;;;;;8.85;1.60;;;12.60;99.90;;;;;;5024866;28;20244;-92
2023/10/30 09:24:04;;;;;;;4.65;1.30;;;12.50;99.90;;;;;;5014678;28;20191;-90
2023/10/30 09:26:29;;;;;;;4.53;1.25;;;12.60;99.90;;;;;;5022798;28;20285;-93
2023/10/30 09:28:55;;;;;;;6.40;1.52;;;12.50;99.90;;;;;;5014580;28;20278;-91
2023/10/30 09:31:21;;;;;;;8.77;1.52;;;12.60;99.90;;;;;;5015671;28;20194;-91
2023/10/30 09:33:48;;;;;;;5.75;1.33;;;12.70;99.90;;;;;;5014283;28;20274;-92
2023/10/30 09:36:14;;;;;;;6.65;1.33;;;12.80;99.90;;;;;;5014306;28;20183;-93
2023/10/30 09:38:41;;;;;;;7.25;1.73;;;12.90;99.90;;;;;;5022509;28;20194;-91
2023/10/30 09:41:11;;;;;;;5.18;1.38;;;13.10;99.90;;;;;;5020052;28;20182;-88
2023/10/30 09:43:38;;;;;;;4.85;1.23;;;13.20;99.90;;;;;;5015890;28;20189;-90
2023/10/30 09:46:07;;;;;;;5.28;1.42;;;13.40;99.90;;;;;;5022527;28;20245;-92
2023/10/30 09:48:35;;;;;;;8.32;1.55;;;13.60;99.90;;;;;;5014048;28;20227;-91
2023/10/30 09:51:03;;;;;;;8.38;1.77;;;13.70;99.90;;;;;;5014143;28;20187;-92
2023/10/30 09:53:29;;;;;;;6.97;1.52;;;13.70;99.90;;;;;;5014193;28;20633;-92
2023/10/30 09:55:57;;;;;;;4.97;1.40;;;13.70;99.90;;;;;;5022317;28;20242;-91
2023/10/30 09:58:23;;;;;;;5.97;1.15;;;13.80;99.90;;;;;;5014412;28;20563;-89
2023/10/30 10:00:49;;;;;;;4.65;1.13;;;13.80;99.90;;;;;;5022200;28;20183;-92
2023/10/30 10:03:15;;;;;;;12.88;1.60;;;13.90;99.90;;;;;;5030305;28;20245;-91
2023/10/30 10:05:41;;;;;;;3.28;0.98;;;13.90;99.90;;;;;;5017009;28;20293;-90
2023/10/30 10:08:08;;;;;;;6.28;1.10;;;14.00;99.90;;;;;;5017055;28;20178;-90
2023/10/30 10:11:02;;;;;;;5.03;1.35;;;13.90;99.90;;;;;;5024397;28;20182;-90
2023/10/30 10:13:31;;;;;;;3.50;1.20;;;14.00;99.90;;;;;;5013711;28;20210;-92
2023/10/30 10:15:56;;;;;;;9.50;2.17;;;14.10;99.90;;;;;;5013946;28;20222;-90
2023/10/30 10:18:27;;;;;;;6.20;1.35;;;14.20;99.90;;;;;;5014859;28;20191;-91
2023/10/30 10:21:11;;;;;;;8.00;1.90;;;14.30;99.90;;;;;;5006051;28;20191;-88
2023/10/30 10:23:38;;;;;;;7.15;1.15;;;14.20;99.90;;;;;;5013435;28;20281;-91
2023/10/30 10:26:14;;;;;;;4.50;1.30;;;14.30;99.90;;;;;;5014663;28;20211;-89
2023/10/30 10:28:47;;;;;;;4.90;1.80;;;14.30;99.90;;;;;;5031461;28;20195;-90
2023/10/30 10:31:14;;;;;;;7.10;1.45;;;14.40;99.90;;;;;;5023300;28;20233;-90
2023/10/30 10:33:40;;;;;;;6.07;1.13;;;14.40;99.90;;;;;;5013572;28;20210;-91
2023/10/30 10:36:07;;;;;;;5.85;1.40;;;14.40;99.90;;;;;;5013786;28;20229;-91
2023/10/30 10:38:33;;;;;;;6.47;1.30;;;14.50;99.90;;;;;;5013646;28;20197;-88
2023/10/30 10:40:59;;;;;;;8.45;1.45;;;14.40;99.90;;;;;;5013531;28;20190;-90
2023/10/30 10:43:27;;;;;;;5.85;1.10;;;14.30;99.90;;;;;;5013196;28;20528;-90
2023/10/30 10:45:54;;;;;;;6.18;1.00;;;14.40;99.90;;;;;;5030006;28;20222;-88
2023/10/30 10:48:22;;;;;;;6.40;1.42;;;14.40;99.90;;;;;;5014415;28;20228;-88
2023/10/30 10:50:49;;;;;;;4.57;1.10;;;14.30;99.90;;;;;;5013369;28;20191;-89
2023/10/30 10:53:19;;;;;;;5.45;1.23;;;14.30;99.90;;;;;;5013155;28;20195;-87
2023/10/30 10:55:46;;;;;;;3.97;1.08;;;14.30;99.90;;;;;;5013388;28;20195;-89
2023/10/30 10:58:28;;;;;;;8.10;1.27;;;14.40;99.90;;;;;;5013453;28;20195;-90
2023/10/30 11:00:54;;;;;;;3.33;1.17;;;14.40;99.90;;;;;;5005984;28;20300;-91
2023/10/30 11:03:21;;;;;;;6.22;1.17;;;14.50;99.90;;;;;;5006179;28;20223;-89
2023/10/30 11:05:51;;;;;;;3.50;1.02;;;14.50;99.90;;;;;;5012778;28;20223;-90
2023/10/30 11:08:46;;;;;;;5.68;1.08;;;14.50;99.90;;;;;;5013415;28;20569;-88
2023/10/30 11:11:22;;;;;;;4.50;1.42;;;14.60;99.90;;;;;;5029912;28;20214;-91
2023/10/30 11:14:17;;;;;;;7.47;1.33;;;14.60;99.90;;;;;;5017445;28;20183;-88
2023/10/30 11:16:53;;;;;;;7.10;1.23;;;14.70;99.90;;;;;;5011991;28;20196;-90
2023/10/30 11:19:22;;;;;;;4.97;1.13;;;14.80;99.90;;;;;;5013374;28;20269;-92
2023/10/30 11:21:49;;;;;;;5.28;1.20;;;14.70;99.90;;;;;;5013096;28;20187;-90
2023/10/30 11:24:41;;;;;;;5.47;0.95;;;14.80;99.90;;;;;;5013290;28;20187;-88
2023/10/30 11:27:25;;;;;;;7.00;1.02;;;14.90;99.90;;;;;;4997552;28;20199;-90
2023/10/30 11:30:10;;;;;;;4.05;1.05;;;14.90;99.90;;;;;;5005113;28;20274;-91
2023/10/30 11:32:44;;;;;;;6.00;1.00;;;14.90;99.90;;;;;;5006452;28;20386;-92
2023/10/30 11:35:11;;;;;;;4.18;0.80;;;15.00;99.90;;;;;;5032709;28;20196;-91
2023/10/30 11:37:37;;;;;;;3.78;1.05;;;15.20;99.90;;;;;;5016321;28;20183;-91
2023/10/30 11:40:07;;;;;;;7.78;1.00;;;15.20;99.90;;;;;;5016604;28;20182;-89
2023/10/30 11:42:39;;;;;;;1.75;0.80;;;15.20;99.90;;;;;;5017740;28;20496;-92
2023/10/30 11:45:18;;;;;;;3.13;0.80;;;15.30;99.90;;;;;;5022966;28;20624;-91
2023/10/30 11:47:55;;;;;;;4.90;1.08;;;15.40;99.90;;;;;;5024061;28;20250;-91
2023/10/30 11:50:28;;;;;;;3.72;0.93;;;15.30;99.90;;;;;;5016604;28;20700;-90
2023/10/30 11:52:57;;;;;;;4.03;0.85;;;15.20;99.90;;;;;;5009225;28;20640;-91
2023/10/30 11:55:23;;;;;;;3.05;0.90;;;15.20;99.90;;;;;;5033436;28;20189;-89
2023/10/30 11:57:49;;;;;;;4.93;1.10;;;15.20;99.90;;;;;;5016517;28;20183;-93
2023/10/30 12:00:15;;;;;;;4.28;1.15;;;15.30;99.90;;;;;;5016268;28;20618;-91
2023/10/30 12:02:46;;;;;;;4.63;0.90;;;15.30;99.90;;;;;;5024246;28;20198;-93
2023/10/30 12:05:12;;;;;;;3.30;0.80;;;15.40;99.90;;;;;;5022013;28;20218;-90
2023/10/30 12:07:38;;;;;;;4.30;1.23;;;15.50;99.90;;;;;;5017904;28;20191;-92
2023/10/30 12:10:04;;;;;;;2.70;0.77;;;15.60;99.90;;;;;;5016375;28;20186;-94
2023/10/30 12:12:31;;;;;;;2.88;0.93;;;15.60;99.90;;;;;;5032699;28;20222;-92
2023/10/30 12:14:58;;;;;;;3.28;0.77;;;15.60;99.90;;;;;;5017079;28;20677;-88
2023/10/30 12:17:24;;;;;;;4.00;0.98;;;15.50;99.90;;;;;;5032338;28;20276;-94
2023/10/30 12:19:50;;;;;;;3.28;0.80;;;15.50;99.90;;;;;;5018469;28;20179;-90
2023/10/30 12:22:16;;;;;;;3.55;0.80;;;15.60;99.90;;;;;;5021734;28;20198;-93
2023/10/30 12:24:42;;;;;;;3.35;0.98;;;15.50;99.90;;;;;;5016688;28;20318;-93
2023/10/30 12:27:08;;;;;;;4.55;0.90;;;15.50;99.90;;;;;;5023824;28;20191;-88
2023/10/30 12:29:34;;;;;;;4.63;0.85;;;15.50;99.90;;;;;;5016850;28;20179;-92
2023/10/30 12:32:02;;;;;;;5.35;0.90;;;15.50;99.90;;;;;;5015783;28;20215;-88
2023/10/30 12:34:30;;;;;;;3.15;0.90;;;15.60;99.90;;;;;;5031790;28;20179;-89
2023/10/30 12:36:56;;;;;;;1.52;0.60;;;15.60;99.90;;;;;;5015042;28;20689;-93
2023/10/30 12:39:22;;;;;;;2.10;0.60;;;15.60;99.90;;;;;;5015675;28;20193;-91
2023/10/30 12:41:55;;;;;;;3.20;0.95;;;15.60;99.90;;;;;;5026742;28;20580;-90
2023/10/30 12:44:26;;;;;;;3.30;0.88;;;15.70;99.90;;;;;;5011044;28;20271;-90